Time;durP1;ratioP1;P1;durP2;ratioP2;P2;SDS_P1;SDS_P2;PMS_P1;PMS_P2;Temp;Humidity;BMP_temperature;BMP_pressure;BME280_temperature;BME280_humidity;BME280_pressure;Samples;Min_cycle;Max_cycle;Signal;HPM_P1;HPM_P2
2023/05/21 00:01:44;;;;;;;0.00;0.00;;;;;;;;;;4955830;29;20403;-82
2023/05/21 00:04:11;;;;;;;0.00;0.00;;;;;;;;;;4938580;29;20055;-81
2023/05/21 00:06:38;;;;;;;0.00;0.00;;;;;;;;;;4956165;29;20053;-82
2023/05/21 00:09:04;;;;;;;0.00;0.00;;;;;;;;;;4954918;28;20042;-82
2023/05/21 00:11:31;;;;;;;0.20;0.05;;;;;;;;;;4954723;29;20086;-81
2023/05/21 00:13:57;;;;;;;0.00;0.00;;;;;;;;;;4954490;29;20118;-82
2023/05/21 00:16:23;;;;;;;0.00;0.00;;;;;;;;;;4955830;29;20570;-82
2023/05/21 00:18:49;;;;;;;0.00;0.00;;;;;;;;;;4954511;29;20051;-82
2023/05/21 00:21:16;;;;;;;0.00;0.00;;;;;;;;;;4938291;29;20459;-82
2023/05/21 00:23:42;;;;;;;0.00;0.00;;;;;;;;;;4954375;29;20043;-82
2023/05/21 00:26:08;;;;;;;0.00;0.00;;;;;;;;;;4955826;29;20249;-82
2023/05/21 00:28:34;;;;;;;0.00;0.00;;;;;;;;;;4954109;29;20043;-82
2023/05/21 00:31:01;;;;;;;0.00;0.00;;;;;;;;;;4955727;28;20054;-83
2023/05/21 00:33:28;;;;;;;0.00;0.00;;;;;;;;;;4955483;29;20039;-82
2023/05/21 00:35:55;;;;;;;0.00;0.00;;;;;;;;;;4954487;28;20051;-82
2023/05/21 00:38:22;;;;;;;0.20;0.10;;;;;;;;;;4955243;29;20127;-82
2023/05/21 00:40:48;;;;;;;0.00;0.00;;;;;;;;;;4955247;28;20068;-82
2023/05/21 00:43:14;;;;;;;0.00;0.00;;;;;;;;;;4954000;29;20051;-82
2023/05/21 00:45:43;;;;;;;0.00;0.00;;;;;;;;;;4953978;29;20139;-82
2023/05/21 00:48:09;;;;;;;0.00;0.00;;;;;;;;;;4955128;29;20487;-82
2023/05/21 00:50:38;;;;;;;0.00;0.00;;;;;;;;;;4954039;28;20462;-82
2023/05/21 00:53:08;;;;;;;0.00;0.00;;;;;;;;;;4955285;29;20043;-82
2023/05/21 00:55:34;;;;;;;0.00;0.00;;;;;;;;;;4937944;29;20518;-81
2023/05/21 00:58:00;;;;;;;0.00;0.00;;;;;;;;;;4938092;29;20046;-82
2023/05/21 01:00:27;;;;;;;0.00;0.00;;;;;;;;;;4954091;28;20058;-82
2023/05/21 01:02:53;;;;;;;0.00;0.00;;;;;;;;;;4955336;29;20051;-81
2023/05/21 01:05:20;;;;;;;0.00;0.00;;;;;;;;;;4954721;28;20062;-82
2023/05/21 01:07:47;;;;;;;0.00;0.00;;;;;;;;;;4955181;29;20171;-82
2023/05/21 01:10:13;;;;;;;0.00;0.00;;;;;;;;;;4953617;28;20506;-82
2023/05/21 01:12:41;;;;;;;0.00;0.00;;;;;;;;;;4953656;29;20050;-82
2023/05/21 01:15:07;;;;;;;0.00;0.00;;;;;;;;;;4955036;29;20130;-82
2023/05/21 01:17:34;;;;;;;0.00;0.00;;;;;;;;;;4953569;29;20067;-82
2023/05/21 01:20:00;;;;;;;0.00;0.00;;;;;;;;;;4955182;28;20134;-81
2023/05/21 01:22:28;;;;;;;0.00;0.00;;;;;;;;;;4953710;29;20046;-82
2023/05/21 01:24:54;;;;;;;0.00;0.00;;;;;;;;;;4953453;29;20060;-81
2023/05/21 01:27:21;;;;;;;0.00;0.00;;;;;;;;;;4954935;29;20066;-83
2023/05/21 01:29:47;;;;;;;0.00;0.00;;;;;;;;;;4953778;28;20043;-82
2023/05/21 01:32:13;;;;;;;0.00;0.00;;;;;;;;;;4953559;29;20122;-82
2023/05/21 01:34:42;;;;;;;0.00;0.00;;;;;;;;;;4953879;29;20078;-82
2023/05/21 01:37:12;;;;;;;0.00;0.00;;;;;;;;;;4953570;29;20074;-82
2023/05/21 01:39:43;;;;;;;0.00;0.00;;;;;;;;;;4953256;28;20086;-82
2023/05/21 01:42:10;;;;;;;0.00;0.00;;;;;;;;;;4954895;29;20047;-82
2023/05/21 01:44:37;;;;;;;0.00;0.00;;;;;;;;;;4937248;29;20126;-82
2023/05/21 01:47:04;;;;;;;0.00;0.00;;;;;;;;;;4953649;29;20039;-81
2023/05/21 01:49:30;;;;;;;0.00;0.00;;;;;;;;;;4954602;28;20093;-82
2023/05/21 01:51:56;;;;;;;0.00;0.00;;;;;;;;;;4954910;29;20494;-82
2023/05/21 01:54:22;;;;;;;0.00;0.00;;;;;;;;;;4953326;29;20051;-82
2023/05/21 01:56:49;;;;;;;0.00;0.00;;;;;;;;;;4954656;29;20102;-81
2023/05/21 01:59:16;;;;;;;0.00;0.00;;;;;;;;;;4953287;28;20844;-82
2023/05/21 02:01:42;;;;;;;0.05;0.00;;;;;;;;;;4953253;29;20495;-82
2023/05/21 02:04:08;;;;;;;0.00;0.00;;;;;;;;;;4952736;29;20056;-82
2023/05/21 02:06:35;;;;;;;0.00;0.00;;;;;;;;;;4937105;29;20106;-82
2023/05/21 02:09:02;;;;;;;0.00;0.00;;;;;;;;;;4954056;28;20526;-82
2023/05/21 02:11:28;;;;;;;0.00;0.00;;;;;;;;;;4954325;29;20525;-82
2023/05/21 02:13:56;;;;;;;0.00;0.00;;;;;;;;;;4954192;29;20071;-81
2023/05/21 02:16:22;;;;;;;0.00;0.00;;;;;;;;;;4936916;28;20040;-82
2023/05/21 02:18:52;;;;;;;0.00;0.00;;;;;;;;;;4957626;29;20035;-82
2023/05/21 02:21:19;;;;;;;0.00;0.00;;;;;;;;;;4956844;28;20074;-81
2023/05/21 02:23:45;;;;;;;0.00;0.00;;;;;;;;;;4956557;29;20047;-82
2023/05/21 02:26:11;;;;;;;0.00;0.00;;;;;;;;;;4958134;29;20043;-82
2023/05/21 02:28:37;;;;;;;0.00;0.00;;;;;;;;;;4957726;29;20119;-81
2023/05/21 02:31:03;;;;;;;0.00;0.00;;;;;;;;;;4956810;28;20450;-81
2023/05/21 02:33:29;;;;;;;0.00;0.00;;;;;;;;;;4956519;29;20062;-82
2023/05/21 02:35:55;;;;;;;0.00;0.00;;;;;;;;;;4956541;29;20414;-82
2023/05/21 02:38:21;;;;;;;0.00;0.00;;;;;;;;;;4956355;29;20059;-82
2023/05/21 02:40:49;;;;;;;0.00;0.00;;;;;;;;;;4957667;28;20559;-82
2023/05/21 02:43:15;;;;;;;0.00;0.00;;;;;;;;;;4956313;29;20047;-82
2023/05/21 02:45:41;;;;;;;0.00;0.00;;;;;;;;;;4956532;28;20055;-82
2023/05/21 02:48:07;;;;;;;0.00;0.00;;;;;;;;;;4957471;29;20047;-83
2023/05/21 02:50:33;;;;;;;0.00;0.00;;;;;;;;;;4956506;28;20077;-82
2023/05/21 02:53:00;;;;;;;0.00;0.00;;;;;;;;;;4956404;28;20379;-82
2023/05/21 02:55:26;;;;;;;0.00;0.00;;;;;;;;;;4956106;29;20051;-82
2023/05/21 02:57:52;;;;;;;0.00;0.00;;;;;;;;;;4940383;29;20127;-82
2023/05/21 03:00:18;;;;;;;0.00;0.00;;;;;;;;;;4957375;28;20122;-82
2023/05/21 03:02:43;;;;;;;0.00;0.00;;;;;;;;;;4955994;29;20118;-82
2023/05/21 03:05:09;;;;;;;0.00;0.00;;;;;;;;;;4955620;29;20066;-82
2023/05/21 03:07:35;;;;;;;0.00;0.00;;;;;;;;;;4940157;29;20507;-81
2023/05/21 03:10:01;;;;;;;0.00;0.00;;;;;;;;;;4955679;28;20242;-82
2023/05/21 03:12:27;;;;;;;0.00;0.00;;;;;;;;;;4956217;29;20454;-81
2023/05/21 03:14:55;;;;;;;0.00;0.00;;;;;;;;;;4956960;29;20122;-82
2023/05/21 03:17:21;;;;;;;0.00;0.00;;;;;;;;;;4956933;29;20098;-82
2023/05/21 03:19:47;;;;;;;0.00;0.00;;;;;;;;;;4955678;28;20055;-81
2023/05/21 03:22:14;;;;;;;0.00;0.00;;;;;;;;;;4955625;29;20119;-82
2023/05/21 03:24:41;;;;;;;0.00;0.00;;;;;;;;;;4955368;29;20043;-82
2023/05/21 03:27:07;;;;;;;0.00;0.00;;;;;;;;;;4956025;29;20213;-82
2023/05/21 03:29:33;;;;;;;0.00;0.00;;;;;;;;;;4955606;28;20039;-81
2023/05/21 03:32:00;;;;;;;0.00;0.00;;;;;;;;;;4955412;29;20043;-82
2023/05/21 03:34:26;;;;;;;0.00;0.00;;;;;;;;;;4955386;29;20051;-81
2023/05/21 03:36:52;;;;;;;0.00;0.00;;;;;;;;;;4955911;29;20387;-82
2023/05/21 03:39:18;;;;;;;0.00;0.00;;;;;;;;;;4955154;28;20047;-82
2023/05/21 03:41:44;;;;;;;0.00;0.00;;;;;;;;;;4955297;29;20046;-82
2023/05/21 03:44:10;;;;;;;0.00;0.00;;;;;;;;;;4955081;29;20047;-82
2023/05/21 03:46:36;;;;;;;0.00;0.00;;;;;;;;;;4959144;29;20075;-86
2023/05/21 03:49:02;;;;;;;0.00;0.00;;;;;;;;;;4956434;28;20042;-82
2023/05/21 03:51:29;;;;;;;0.00;0.00;;;;;;;;;;4956754;29;20118;-81
2023/05/21 03:53:56;;;;;;;0.00;0.00;;;;;;;;;;4955252;29;20421;-81
2023/05/21 03:56:22;;;;;;;0.00;0.00;;;;;;;;;;4955361;29;20043;-82
2023/05/21 03:58:48;;;;;;;0.00;0.00;;;;;;;;;;4956449;29;20035;-82
2023/05/21 04:01:14;;;;;;;0.00;0.00;;;;;;;;;;4956309;28;20465;-81
2023/05/21 04:03:40;;;;;;;0.00;0.00;;;;;;;;;;4954804;29;20059;-82
2023/05/21 04:06:08;;;;;;;0.00;0.00;;;;;;;;;;4956197;29;20407;-82
2023/05/21 04:08:35;;;;;;;0.00;0.00;;;;;;;;;;4956458;29;20085;-82
2023/05/21 04:11:01;;;;;;;0.00;0.00;;;;;;;;;;4954626;28;20518;-82
2023/05/21 04:13:27;;;;;;;0.00;0.00;;;;;;;;;;4954805;29;20071;-82
2023/05/21 04:15:53;;;;;;;0.00;0.00;;;;;;;;;;4954585;29;20423;-82
2023/05/21 04:18:22;;;;;;;0.00;0.00;;;;;;;;;;4956100;28;20097;-82
2023/05/21 04:20:48;;;;;;;0.00;0.00;;;;;;;;;;4938565;29;20141;-81
2023/05/21 04:23:15;;;;;;;0.00;0.00;;;;;;;;;;4954540;29;20047;-82
2023/05/21 04:25:41;;;;;;;0.00;0.00;;;;;;;;;;4955564;29;20054;-82
2023/05/21 04:28:07;;;;;;;0.00;0.00;;;;;;;;;;4955653;29;20050;-82
2023/05/21 04:30:36;;;;;;;0.00;0.00;;;;;;;;;;4954437;28;20047;-82
2023/05/21 04:33:02;;;;;;;0.00;0.00;;;;;;;;;;4954312;29;20440;-81
2023/05/21 04:35:28;;;;;;;0.00;0.00;;;;;;;;;;4954288;29;20046;-82
2023/05/21 04:37:54;;;;;;;0.00;0.00;;;;;;;;;;4938612;29;20051;-82
2023/05/21 04:40:23;;;;;;;0.00;0.00;;;;;;;;;;4953659;28;20086;-82
2023/05/21 04:42:52;;;;;;;0.00;0.00;;;;;;;;;;4954490;29;20047;-82
2023/05/21 04:45:18;;;;;;;0.00;0.00;;;;;;;;;;4955491;29;20039;-81
2023/05/21 04:47:44;;;;;;;0.60;0.10;;;;;;;;;;4954145;29;20403;-82
2023/05/21 04:50:10;;;;;;;0.00;0.00;;;;;;;;;;4955245;28;20434;-81
2023/05/21 04:52:37;;;;;;;0.00;0.00;;;;;;;;;;4938399;29;20419;-82
2023/05/21 04:55:03;;;;;;;0.00;0.00;;;;;;;;;;4954074;29;20340;-82
2023/05/21 04:57:29;;;;;;;0.00;0.00;;;;;;;;;;4955117;29;20047;-81
2023/05/21 04:59:56;;;;;;;0.00;0.00;;;;;;;;;;4955174;28;20090;-82
2023/05/21 05:02:22;;;;;;;0.00;0.00;;;;;;;;;;4937947;29;20043;-82
2023/05/21 05:04:48;;;;;;;0.00;0.00;;;;;;;;;;4954652;29;20055;-82
2023/05/21 05:07:15;;;;;;;0.00;0.00;;;;;;;;;;4953849;29;20061;-82
2023/05/21 05:09:41;;;;;;;0.00;0.00;;;;;;;;;;4937315;29;20043;-82
2023/05/21 05:12:07;;;;;;;0.00;0.00;;;;;;;;;;4955266;29;20095;-82
2023/05/21 05:14:33;;;;;;;0.00;0.00;;;;;;;;;;4955019;29;20203;-83
2023/05/21 05:16:59;;;;;;;0.00;0.00;;;;;;;;;;4954936;29;20075;-82
2023/05/21 05:19:26;;;;;;;0.00;0.00;;;;;;;;;;4953554;28;20510;-82
2023/05/21 05:21:51;;;;;;;0.00;0.00;;;;;;;;;;4953539;29;20073;-82
2023/05/21 05:24:17;;;;;;;0.00;0.00;;;;;;;;;;4953853;29;20122;-82
2023/05/21 05:26:43;;;;;;;0.00;0.00;;;;;;;;;;4955085;29;20043;-81
2023/05/21 05:29:09;;;;;;;0.00;0.00;;;;;;;;;;4954030;28;20098;-81
2023/05/21 05:31:35;;;;;;;0.00;0.00;;;;;;;;;;4954593;29;20043;-81
2023/05/21 05:34:01;;;;;;;0.00;0.00;;;;;;;;;;4953547;29;20046;-81
2023/05/21 05:36:27;;;;;;;0.00;0.00;;;;;;;;;;4954471;29;20035;-82
2023/05/21 05:38:53;;;;;;;0.00;0.00;;;;;;;;;;4953760;29;20047;-81
2023/05/21 05:41:19;;;;;;;0.00;0.00;;;;;;;;;;4954546;28;20043;-82
2023/05/21 05:43:45;;;;;;;0.00;0.00;;;;;;;;;;4953444;29;20043;-82
2023/05/21 05:46:11;;;;;;;0.00;0.00;;;;;;;;;;4953039;29;20047;-82
2023/05/21 05:48:37;;;;;;;0.00;0.00;;;;;;;;;;4953178;29;20043;-82
2023/05/21 05:51:03;;;;;;;0.10;0.10;;;;;;;;;;4952895;28;20043;-82
2023/05/21 05:53:31;;;;;;;0.63;0.10;;;;;;;;;;4952771;29;20078;-81
2023/05/21 05:55:58;;;;;;;0.00;0.00;;;;;;;;;;4953013;29;20054;-82
2023/05/21 05:58:24;;;;;;;0.00;0.00;;;;;;;;;;4953439;29;20086;-82
2023/05/21 06:00:51;;;;;;;0.00;0.00;;;;;;;;;;4952884;28;20055;-81
2023/05/21 06:03:17;;;;;;;0.00;0.00;;;;;;;;;;4954541;28;20047;-81
2023/05/21 06:05:43;;;;;;;0.00;0.00;;;;;;;;;;4952945;29;20062;-80
2023/05/21 06:08:09;;;;;;;0.00;0.00;;;;;;;;;;4954300;29;20035;-81
2023/05/21 06:10:35;;;;;;;0.00;0.00;;;;;;;;;;4953107;28;20046;-81
2023/05/21 06:13:01;;;;;;;0.00;0.00;;;;;;;;;;4953211;29;20058;-79
2023/05/21 06:15:27;;;;;;;0.00;0.00;;;;;;;;;;4954367;29;20444;-81
2023/05/21 06:17:53;;;;;;;0.00;0.00;;;;;;;;;;4953178;29;20043;-81
2023/05/21 06:20:19;;;;;;;0.00;0.00;;;;;;;;;;4936944;29;20079;-81
2023/05/21 06:22:45;;;;;;;0.00;0.00;;;;;;;;;;4953339;29;20085;-81
2023/05/21 06:25:11;;;;;;;0.00;0.00;;;;;;;;;;4952846;29;20050;-81
2023/05/21 06:27:37;;;;;;;0.00;0.00;;;;;;;;;;4954195;29;20126;-81
2023/05/21 06:30:03;;;;;;;0.00;0.00;;;;;;;;;;4953019;28;20542;-80
2023/05/21 06:32:29;;;;;;;0.00;0.00;;;;;;;;;;4953944;29;20043;-80
2023/05/21 06:34:55;;;;;;;0.00;0.00;;;;;;;;;;4953320;29;20043;-81
2023/05/21 06:37:21;;;;;;;0.00;0.00;;;;;;;;;;4953822;29;20051;-81
2023/05/21 06:39:47;;;;;;;0.20;0.00;;;;;;;;;;4952816;28;20109;-81
2023/05/21 06:42:13;;;;;;;0.00;0.00;;;;;;;;;;4936690;29;20082;-80
2023/05/21 06:44:39;;;;;;;0.00;0.00;;;;;;;;;;4952825;29;20055;-80
2023/05/21 06:47:05;;;;;;;0.00;0.00;;;;;;;;;;4936828;29;20430;-80
2023/05/21 06:49:32;;;;;;;0.00;0.00;;;;;;;;;;4952783;28;20075;-81
2023/05/21 06:51:58;;;;;;;0.00;0.00;;;;;;;;;;4952926;29;20039;-82
2023/05/21 06:54:24;;;;;;;0.00;0.00;;;;;;;;;;4954509;29;20048;-81
2023/05/21 06:56:49;;;;;;;0.13;0.00;;;;;;;;;;4952768;29;20053;-82
2023/05/21 06:59:15;;;;;;;0.00;0.00;;;;;;;;;;4954222;28;20054;-81
2023/05/21 07:01:43;;;;;;;0.00;0.00;;;;;;;;;;4952757;29;20388;-80
2023/05/21 07:04:09;;;;;;;0.00;0.00;;;;;;;;;;4954708;28;20043;-81
2023/05/21 07:06:36;;;;;;;0.00;0.00;;;;;;;;;;4956358;29;20118;-82
2023/05/21 07:09:02;;;;;;;0.00;0.00;;;;;;;;;;4955763;28;20047;-81
2023/05/21 07:11:28;;;;;;;0.00;0.00;;;;;;;;;;4957173;29;20052;-81
2023/05/21 07:13:56;;;;;;;0.00;0.00;;;;;;;;;;4956032;29;20043;-81
2023/05/21 07:16:22;;;;;;;0.00;0.00;;;;;;;;;;4955637;29;20054;-81
2023/05/21 07:18:48;;;;;;;0.00;0.00;;;;;;;;;;4957185;29;20047;-82
2023/05/21 07:21:14;;;;;;;0.00;0.00;;;;;;;;;;4956712;28;20379;-82
2023/05/21 07:23:40;;;;;;;0.00;0.00;;;;;;;;;;4956099;29;20087;-81
2023/05/21 07:26:08;;;;;;;0.00;0.00;;;;;;;;;;4955525;29;20559;-81
2023/05/21 07:28:34;;;;;;;0.00;0.00;;;;;;;;;;4957143;29;20043;-81
2023/05/21 07:31:00;;;;;;;0.00;0.00;;;;;;;;;;4955744;28;20391;-81
2023/05/21 07:33:27;;;;;;;0.00;0.00;;;;;;;;;;4956857;29;20051;-81
2023/05/21 07:35:53;;;;;;;0.00;0.00;;;;;;;;;;4955649;29;20047;-81
2023/05/21 07:38:19;;;;;;;0.00;0.00;;;;;;;;;;4956732;29;20058;-81
2023/05/21 07:40:45;;;;;;;0.00;0.00;;;;;;;;;;4956959;28;20542;-81
2023/05/21 07:43:11;;;;;;;0.00;0.00;;;;;;;;;;4955701;29;20043;-81
2023/05/21 07:45:37;;;;;;;0.00;0.00;;;;;;;;;;4939392;29;20463;-81
2023/05/21 07:48:03;;;;;;;0.00;0.00;;;;;;;;;;4939078;29;20082;-81
2023/05/21 07:50:30;;;;;;;0.00;0.00;;;;;;;;;;4955460;28;20484;-81
2023/05/21 07:52:56;;;;;;;0.00;0.00;;;;;;;;;;4955124;29;20043;-81
2023/05/21 07:55:22;;;;;;;0.00;0.00;;;;;;;;;;4956699;29;20105;-80
2023/05/21 07:57:48;;;;;;;0.00;0.00;;;;;;;;;;4956424;29;20446;-81
2023/05/21 08:00:14;;;;;;;0.00;0.00;;;;;;;;;;4955280;28;20118;-81
2023/05/21 08:02:40;;;;;;;0.00;0.00;;;;;;;;;;4954944;28;20039;-81
2023/05/21 08:05:06;;;;;;;0.00;0.00;;;;;;;;;;4954935;29;20113;-81
2023/05/21 08:07:32;;;;;;;0.00;0.00;;;;;;;;;;4956237;29;20039;-81
2023/05/21 08:09:58;;;;;;;0.20;0.00;;;;;;;;;;4955090;28;20079;-81
2023/05/21 08:12:24;;;;;;;0.00;0.00;;;;;;;;;;4956013;29;20130;-81
2023/05/21 08:14:50;;;;;;;0.00;0.00;;;;;;;;;;4954079;28;20100;-81
2023/05/21 08:17:17;;;;;;;0.00;0.00;;;;;;;;;;4955915;29;20047;-81
2023/05/21 08:19:43;;;;;;;0.13;0.13;;;;;;;;;;4954951;28;20146;-81
2023/05/21 08:22:09;;;;;;;0.00;0.00;;;;;;;;;;4956222;29;20046;-85
2023/05/21 08:24:35;;;;;;;0.00;0.00;;;;;;;;;;4954720;29;20440;-81
2023/05/21 08:27:01;;;;;;;0.00;0.00;;;;;;;;;;4955975;29;20040;-84
2023/05/21 08:29:27;;;;;;;0.00;0.00;;;;;;;;;;4954593;28;20074;-80
2023/05/21 08:31:53;;;;;;;0.00;0.00;;;;;;;;;;4954496;29;20082;-81
2023/05/21 08:34:19;;;;;;;0.00;0.00;;;;;;;;;;4955940;29;20039;-83
2023/05/21 08:36:46;;;;;;;0.00;0.00;;;;;;;;;;4956045;29;20439;-82
2023/05/21 08:39:15;;;;;;;0.00;0.00;;;;;;;;;;4954645;28;20051;-82
2023/05/21 08:41:48;;;;;;;0.00;0.00;;;;;;;;;;4954205;29;20074;-82
2023/05/21 08:44:14;;;;;;;0.00;0.00;;;;;;;;;;4955689;29;20082;-82
2023/05/21 08:46:42;;;;;;;0.00;0.00;;;;;;;;;;4955421;29;20073;-81
2023/05/21 08:49:11;;;;;;;0.00;0.00;;;;;;;;;;4954095;28;20403;-81
2023/05/21 08:51:40;;;;;;;0.00;0.00;;;;;;;;;;4955244;29;20042;-81
2023/05/21 08:54:07;;;;;;;0.00;0.00;;;;;;;;;;4955299;29;20035;-82
2023/05/21 08:56:34;;;;;;;0.00;0.00;;;;;;;;;;4955450;29;20062;-82
2023/05/21 08:59:01;;;;;;;0.00;0.00;;;;;;;;;;4954085;28;20043;-81
2023/05/21 09:01:27;;;;;;;0.00;0.00;;;;;;;;;;4938123;29;20039;-83
2023/05/21 09:03:56;;;;;;;0.00;0.00;;;;;;;;;;4953677;29;20463;-81
2023/05/21 09:06:24;;;;;;;0.00;0.00;;;;;;;;;;4953894;29;20098;-81
2023/05/21 09:08:55;;;;;;;0.32;0.17;;;;;;;;;;4967764;28;20039;-81
2023/05/21 09:11:21;;;;;;;0.00;0.00;;;;;;;;;;4969061;28;20078;-82
2023/05/21 09:13:48;;;;;;;0.00;0.00;;;;;;;;;;4957797;28;20490;-82
2023/05/21 09:16:14;;;;;;;0.00;0.00;;;;;;;;;;4961400;28;20043;-81
2023/05/21 09:18:40;;;;;;;0.00;0.00;;;;;;;;;;4972975;28;20057;-81
2023/05/21 09:21:25;;;;;;;0.00;0.00;;;;;;;;;;4972985;28;20367;-81
2023/05/21 09:23:58;;;;;;;0.00;0.00;;;;;;;;;;4974003;28;20243;-81
2023/05/21 09:26:25;;;;;;;0.00;0.00;;;;;;;;;;4974161;28;20336;-81
2023/05/21 09:28:51;;;;;;;0.00;0.00;;;;;;;;;;4956600;28;20042;-81
2023/05/21 09:31:17;;;;;;;0.00;0.00;;;;;;;;;;4972633;28;20398;-81
2023/05/21 09:33:46;;;;;;;0.00;0.00;;;;;;;;;;4973707;28;20035;-81
2023/05/21 09:36:12;;;;;;;0.00;0.00;;;;;;;;;;4972476;28;20402;-82
2023/05/21 09:38:38;;;;;;;0.00;0.00;;;;;;;;;;4972266;28;20130;-81
2023/05/21 09:41:05;;;;;;;0.00;0.00;;;;;;;;;;4973650;28;20394;-81
2023/05/21 09:43:31;;;;;;;0.03;0.00;;;;;;;;;;4972595;28;20289;-81
2023/05/21 09:45:57;;;;;;;0.00;0.00;;;;;;;;;;4972229;28;20347;-80
2023/05/21 09:48:37;;;;;;;0.00;0.00;;;;;;;;;;4972076;28;20431;-81
2023/05/21 09:51:16;;;;;;;0.00;0.00;;;;;;;;;;4973583;28;20070;-81
2023/05/21 09:53:53;;;;;;;0.00;0.00;;;;;;;;;;4962043;28;20031;-81
2023/05/21 09:56:23;;;;;;;0.00;0.00;;;;;;;;;;4968765;28;20043;-82
2023/05/21 09:58:53;;;;;;;0.00;0.00;;;;;;;;;;4952841;28;20469;-81
2023/05/21 10:01:20;;;;;;;0.00;0.00;;;;;;;;;;4950970;29;20047;-81
2023/05/21 10:03:47;;;;;;;0.00;0.00;;;;;;;;;;4952712;29;20063;-81
2023/05/21 10:06:14;;;;;;;0.00;0.00;;;;;;;;;;4956426;28;20383;-81
2023/05/21 10:08:42;;;;;;;0.10;0.00;;;;;;;;;;4972097;28;20541;-81
2023/05/21 10:11:08;;;;;;;0.00;0.00;;;;;;;;;;4973574;28;20506;-81
2023/05/21 10:13:38;;;;;;;0.00;0.00;;;;;;;;;;4971886;28;20086;-81
2023/05/21 10:16:04;;;;;;;0.00;0.00;;;;;;;;;;4973331;28;20042;-81
2023/05/21 10:18:31;;;;;;;0.00;0.00;;;;;;;;;;4973310;28;20242;-81
2023/05/21 10:20:58;;;;;;;0.00;0.00;;;;;;;;;;4972103;28;20062;-81
2023/05/21 10:23:24;;;;;;;0.00;0.00;;;;;;;;;;4973455;28;20039;-81
2023/05/21 10:25:51;;;;;;;0.00;0.00;;;;;;;;;;4971567;28;20513;-81
2023/05/21 10:28:17;;;;;;;0.00;0.00;;;;;;;;;;4962192;28;20043;-82
2023/05/21 10:30:44;;;;;;;0.00;0.00;;;;;;;;;;4954020;28;20039;-81
2023/05/21 10:33:11;;;;;;;0.08;0.00;;;;;;;;;;4964577;28;20050;-81
2023/05/21 10:35:40;;;;;;;0.00;0.00;;;;;;;;;;4971952;28;20046;-81
2023/05/21 10:38:06;;;;;;;0.00;0.00;;;;;;;;;;4969050;28;20054;-81
2023/05/21 10:40:32;;;;;;;0.00;0.00;;;;;;;;;;4973815;28;20517;-81
2023/05/21 10:43:10;;;;;;;0.00;0.00;;;;;;;;;;4972944;28;20379;-81
2023/05/21 10:45:36;;;;;;;0.15;0.00;;;;;;;;;;4975504;28;20174;-81
2023/05/21 10:48:03;;;;;;;0.00;0.00;;;;;;;;;;4959162;28;20205;-81
2023/05/21 10:50:43;;;;;;;0.00;0.00;;;;;;;;;;4975562;28;20089;-82
2023/05/21 10:53:27;;;;;;;0.00;0.00;;;;;;;;;;4976689;28;20482;-81
2023/05/21 10:55:59;;;;;;;0.15;0.10;;;;;;;;;;4975461;28;20047;-82
2023/05/21 10:58:38;;;;;;;0.00;0.00;;;;;;;;;;4975252;28;20051;-81
2023/05/21 11:01:05;;;;;;;0.00;0.00;;;;;;;;;;4975949;28;20051;-81
2023/05/21 11:03:32;;;;;;;0.00;0.00;;;;;;;;;;4965397;28;20051;-81
2023/05/21 11:05:59;;;;;;;0.00;0.00;;;;;;;;;;4975417;28;20066;-81
2023/05/21 11:08:34;;;;;;;0.00;0.00;;;;;;;;;;4966904;28;20638;-81
2023/05/21 11:11:01;;;;;;;0.00;0.00;;;;;;;;;;4976376;28;20374;-81
2023/05/21 11:13:31;;;;;;;0.30;0.20;;;;;;;;;;4975676;28;20122;-81
2023/05/21 11:15:57;;;;;;;0.00;0.00;;;;;;;;;;4969475;28;20039;-81
2023/05/21 11:18:43;;;;;;;0.00;0.00;;;;;;;;;;4974845;28;20058;-81
2023/05/21 11:21:10;;;;;;;0.00;0.00;;;;;;;;;;4966154;28;20050;-82
2023/05/21 11:23:51;;;;;;;0.00;0.00;;;;;;;;;;4974928;28;20046;-82
2023/05/21 11:26:21;;;;;;;0.00;0.00;;;;;;;;;;4974928;28;20043;-81
2023/05/21 11:29:05;;;;;;;0.00;0.00;;;;;;;;;;4976253;28;20038;-81
2023/05/21 11:31:38;;;;;;;0.00;0.00;;;;;;;;;;4972101;28;20039;-80
2023/05/21 11:34:10;;;;;;;0.00;0.00;;;;;;;;;;4975888;28;20034;-81
2023/05/21 11:36:37;;;;;;;0.00;0.00;;;;;;;;;;4976107;28;20039;-81
2023/05/21 11:39:23;;;;;;;0.00;0.00;;;;;;;;;;4975955;28;20061;-81
2023/05/21 11:41:52;;;;;;;0.38;0.38;;;;;;;;;;4976677;28;20055;-81
2023/05/21 11:44:21;;;;;;;0.00;0.00;;;;;;;;;;4974696;28;20049;-81
2023/05/21 11:46:47;;;;;;;0.00;0.00;;;;;;;;;;4976107;28;20039;-81
2023/05/21 11:49:15;;;;;;;0.00;0.00;;;;;;;;;;4975031;28;20046;-81
2023/05/21 11:51:42;;;;;;;0.00;0.00;;;;;;;;;;4958230;28;20043;-81
2023/05/21 11:54:09;;;;;;;0.00;0.00;;;;;;;;;;4974080;28;20034;-81
2023/05/21 11:56:40;;;;;;;0.00;0.00;;;;;;;;;;4976061;28;20042;-80
2023/05/21 11:59:12;;;;;;;0.00;0.00;;;;;;;;;;4976174;28;20074;-81
2023/05/21 12:01:38;;;;;;;0.15;0.00;;;;;;;;;;4975976;28;20061;-81
2023/05/21 12:04:04;;;;;;;0.00;0.00;;;;;;;;;;4974233;28;20062;-81
2023/05/21 12:06:31;;;;;;;0.00;0.00;;;;;;;;;;4974328;28;20565;-80
2023/05/21 12:08:57;;;;;;;0.00;0.00;;;;;;;;;;4973841;28;20387;-81
2023/05/21 12:11:23;;;;;;;0.00;0.00;;;;;;;;;;4974299;28;20038;-80
2023/05/21 12:13:49;;;;;;;0.00;0.00;;;;;;;;;;4975500;28;20049;-81
2023/05/21 12:16:15;;;;;;;0.10;0.00;;;;;;;;;;4974384;28;20046;-81
2023/05/21 12:18:41;;;;;;;0.00;0.00;;;;;;;;;;4974186;28;20050;-80
2023/05/21 12:21:08;;;;;;;0.00;0.00;;;;;;;;;;4957916;28;20053;-81
2023/05/21 12:23:34;;;;;;;0.00;0.00;;;;;;;;;;4973969;28;20549;-81
2023/05/21 12:26:00;;;;;;;0.13;0.03;;;;;;;;;;4973677;28;20070;-81
2023/05/21 12:28:26;;;;;;;0.00;0.00;;;;;;;;;;4973999;28;20039;-81
2023/05/21 12:30:52;;;;;;;0.00;0.00;;;;;;;;;;4957478;28;20051;-81
2023/05/21 12:33:18;;;;;;;0.00;0.00;;;;;;;;;;4974145;28;20098;-81
2023/05/21 12:35:48;;;;;;;0.00;0.00;;;;;;;;;;4973711;28;20055;-81
2023/05/21 12:38:15;;;;;;;0.00;0.00;;;;;;;;;;4973876;28;20043;-81
2023/05/21 12:40:43;;;;;;;0.00;0.00;;;;;;;;;;4973775;28;20335;-81
2023/05/21 12:43:09;;;;;;;0.30;0.00;;;;;;;;;;4973720;28;20098;-81
2023/05/21 12:45:38;;;;;;;0.20;0.10;;;;;;;;;;4973283;28;20046;-81
2023/05/21 12:48:04;;;;;;;0.00;0.00;;;;;;;;;;4974721;28;20117;-81
2023/05/21 12:50:30;;;;;;;0.20;0.20;;;;;;;;;;4974885;28;20035;-83
2023/05/21 12:52:57;;;;;;;0.00;0.00;;;;;;;;;;4974604;28;20506;-81
2023/05/21 12:55:25;;;;;;;0.00;0.00;;;;;;;;;;4957336;28;20482;-81
2023/05/21 12:57:59;;;;;;;0.35;0.10;;;;;;;;;;4974894;28;20109;-81
2023/05/21 13:00:25;;;;;;;0.00;0.00;;;;;;;;;;4973476;28;20082;-81
2023/05/21 13:02:51;;;;;;;0.00;0.00;;;;;;;;;;4974360;28;20042;-81
2023/05/21 13:05:18;;;;;;;0.00;0.00;;;;;;;;;;4972880;28;20105;-81
2023/05/21 13:07:45;;;;;;;0.00;0.00;;;;;;;;;;4974541;28;20450;-81
2023/05/21 13:10:12;;;;;;;0.00;0.00;;;;;;;;;;4974259;28;20104;-81
2023/05/21 13:12:38;;;;;;;0.00;0.00;;;;;;;;;;4973250;28;20074;-81
2023/05/21 13:15:06;;;;;;;0.00;0.00;;;;;;;;;;4973028;28;20209;-81
2023/05/21 13:17:32;;;;;;;0.00;0.00;;;;;;;;;;4973178;28;20477;-81
2023/05/21 13:20:07;;;;;;;0.77;0.20;;;;;;;;;;4972686;28;20046;-81
2023/05/21 13:22:34;;;;;;;0.00;0.00;;;;;;;;;;4973138;28;20043;-82
2023/05/21 13:25:00;;;;;;;0.00;0.00;;;;;;;;;;4972948;28;20054;-81
2023/05/21 13:27:26;;;;;;;0.00;0.00;;;;;;;;;;4973326;28;20146;-81
2023/05/21 13:29:52;;;;;;;0.00;0.00;;;;;;;;;;4972584;28;20467;-81
2023/05/21 13:32:18;;;;;;;0.00;0.00;;;;;;;;;;4972808;28;20081;-82
2023/05/21 13:34:45;;;;;;;0.00;0.00;;;;;;;;;;4972688;28;20050;-82
2023/05/21 13:37:11;;;;;;;0.00;0.00;;;;;;;;;;4973091;28;20057;-82
2023/05/21 13:39:37;;;;;;;0.25;0.25;;;;;;;;;;4972445;28;20362;-81
2023/05/21 13:42:04;;;;;;;0.20;0.10;;;;;;;;;;4973764;28;20039;-81
2023/05/21 13:44:34;;;;;;;0.00;0.00;;;;;;;;;;4972674;28;20042;-81
2023/05/21 13:47:00;;;;;;;0.00;0.00;;;;;;;;;;4972797;28;20367;-81
2023/05/21 13:49:26;;;;;;;0.93;0.63;;;;;;;;;;4972723;28;20039;-80
2023/05/21 13:51:52;;;;;;;0.00;0.00;;;;;;;;;;4973836;28;20085;-81
2023/05/21 13:54:18;;;;;;;0.00;0.00;;;;;;;;;;4972761;28;20037;-81
2023/05/21 13:56:44;;;;;;;0.00;0.00;;;;;;;;;;4973453;28;20043;-81
2023/05/21 13:59:10;;;;;;;0.00;0.00;;;;;;;;;;4972461;28;20082;-81
2023/05/21 14:01:36;;;;;;;0.00;0.00;;;;;;;;;;4973393;28;20046;-81
2023/05/21 14:04:04;;;;;;;0.00;0.00;;;;;;;;;;4972473;28;20050;-81
2023/05/21 14:06:34;;;;;;;0.00;0.00;;;;;;;;;;4956151;28;20053;-81
2023/05/21 14:09:01;;;;;;;0.00;0.00;;;;;;;;;;4972417;28;20510;-81
2023/05/21 14:11:27;;;;;;;0.10;0.00;;;;;;;;;;4971972;28;20047;-81
2023/05/21 14:13:54;;;;;;;0.00;0.00;;;;;;;;;;4974081;28;20098;-81
2023/05/21 14:16:23;;;;;;;0.00;0.00;;;;;;;;;;4977427;28;20053;-81
2023/05/21 14:18:51;;;;;;;0.00;0.00;;;;;;;;;;4977606;28;20096;-81
2023/05/21 14:21:17;;;;;;;0.00;0.00;;;;;;;;;;4977221;28;20159;-80
2023/05/21 14:23:43;;;;;;;0.00;0.00;;;;;;;;;;4976043;28;20043;-81
2023/05/21 14:26:09;;;;;;;0.00;0.00;;;;;;;;;;4976910;28;20042;-82
2023/05/21 14:28:35;;;;;;;0.00;0.00;;;;;;;;;;4977383;28;20045;-81
2023/05/21 14:31:01;;;;;;;0.00;0.00;;;;;;;;;;4976003;28;20038;-81
2023/05/21 14:33:27;;;;;;;0.45;0.10;;;;;;;;;;4977293;28;20045;-82
2023/05/21 14:35:53;;;;;;;0.00;0.00;;;;;;;;;;4976975;28;20101;-81
2023/05/21 14:38:19;;;;;;;0.00;0.00;;;;;;;;;;4975884;28;20122;-81
2023/05/21 14:40:45;;;;;;;0.32;0.05;;;;;;;;;;4975381;28;20057;-81
2023/05/21 14:43:11;;;;;;;0.00;0.00;;;;;;;;;;4975594;28;20042;-81